sensor_id;sensor_type;location;lat;lon;timestamp;P1;durP1;ratioP1;P2;durP2;ratioP2
18505;SDS011;9382;53.242;10.438;2023-01-28T00:01:54;3.03;;;2.40;;
18505;SDS011;9382;53.242;10.438;2023-01-28T00:04:21;3.10;;;2.70;;
18505;SDS011;9382;53.242;10.438;2023-01-28T00:06:47;3.43;;;2.50;;
18505;SDS011;9382;53.242;10.438;2023-01-28T00:09:15;2.47;;;2.13;;
18505;SDS011;9382;53.242;10.438;2023-01-28T00:11:42;2.90;;;2.33;;
18505;SDS011;9382;53.242;10.438;2023-01-28T00:14:09;3.17;;;2.60;;
18505;SDS011;9382;53.242;10.438;2023-01-28T00:16:36;2.27;;;2.10;;
18505;SDS011;9382;53.242;10.438;2023-01-28T00:19:03;4.17;;;2.10;;
18505;SDS011;9382;53.242;10.438;2023-01-28T00:21:30;3.37;;;2.33;;
18505;SDS011;9382;53.242;10.438;2023-01-28T00:23:56;2.27;;;2.03;;
18505;SDS011;9382;53.242;10.438;2023-01-28T00:26:25;3.40;;;2.40;;
18505;SDS011;9382;53.242;10.438;2023-01-28T00:28:51;2.63;;;2.30;;
18505;SDS011;9382;53.242;10.438;2023-01-28T00:31:19;4.73;;;2.10;;
18505;SDS011;9382;53.242;10.438;2023-01-28T00:33:48;2.40;;;2.00;;
18505;SDS011;9382;53.242;10.438;2023-01-28T00:36:16;7.20;;;2.40;;
18505;SDS011;9382;53.242;10.438;2023-01-28T00:38:48;2.20;;;2.10;;
18505;SDS011;9382;53.242;10.438;2023-01-28T00:41:16;3.43;;;2.30;;
18505;SDS011;9382;53.242;10.438;2023-01-28T00:43:47;4.10;;;2.13;;
18505;SDS011;9382;53.242;10.438;2023-01-28T00:46:15;2.07;;;1.93;;
18505;SDS011;9382;53.242;10.438;2023-01-28T00:48:42;3.67;;;2.20;;
18505;SDS011;9382;53.242;10.438;2023-01-28T00:51:10;4.77;;;2.23;;
18505;SDS011;9382;53.242;10.438;2023-01-28T00:53:38;2.93;;;2.30;;
18505;SDS011;9382;53.242;10.438;2023-01-28T00:56:06;2.00;;;1.90;;
18505;SDS011;9382;53.242;10.438;2023-01-28T00:58:34;4.83;;;2.57;;
18505;SDS011;9382;53.242;10.438;2023-01-28T01:01:06;4.30;;;2.10;;
18505;SDS011;9382;53.242;10.438;2023-01-28T01:03:34;2.63;;;2.00;;
18505;SDS011;9382;53.242;10.438;2023-01-28T01:06:01;4.73;;;2.07;;
18505;SDS011;9382;53.242;10.438;2023-01-28T01:08:28;3.37;;;2.13;;
18505;SDS011;9382;53.242;10.438;2023-01-28T01:10:59;3.43;;;2.00;;
18505;SDS011;9382;53.242;10.438;2023-01-28T01:13:26;3.53;;;2.33;;
18505;SDS011;9382;53.242;10.438;2023-01-28T01:16:00;2.50;;;1.87;;
18505;SDS011;9382;53.242;10.438;2023-01-28T01:18:29;2.20;;;2.00;;
18505;SDS011;9382;53.242;10.438;2023-01-28T01:20:56;3.53;;;2.13;;
18505;SDS011;9382;53.242;10.438;2023-01-28T01:23:23;2.07;;;1.90;;
18505;SDS011;9382;53.242;10.438;2023-01-28T01:25:50;2.57;;;2.10;;
18505;SDS011;9382;53.242;10.438;2023-01-28T01:28:17;4.63;;;1.97;;
18505;SDS011;9382;53.242;10.438;2023-01-28T01:30:44;5.27;;;2.40;;
18505;SDS011;9382;53.242;10.438;2023-01-28T01:33:11;6.37;;;2.40;;
18505;SDS011;9382;53.242;10.438;2023-01-28T01:35:39;2.47;;;2.27;;
18505;SDS011;9382;53.242;10.438;2023-01-28T01:38:07;5.00;;;2.10;;
18505;SDS011;9382;53.242;10.438;2023-01-28T01:40:33;2.30;;;2.10;;
18505;SDS011;9382;53.242;10.438;2023-01-28T01:43:00;4.27;;;2.23;;
18505;SDS011;9382;53.242;10.438;2023-01-28T01:45:27;2.87;;;2.00;;
18505;SDS011;9382;53.242;10.438;2023-01-28T01:47:57;2.80;;;2.30;;
18505;SDS011;9382;53.242;10.438;2023-01-28T01:50:28;2.50;;;2.00;;
18505;SDS011;9382;53.242;10.438;2023-01-28T01:53:01;4.27;;;2.10;;
18505;SDS011;9382;53.242;10.438;2023-01-28T01:55:30;2.07;;;1.97;;
18505;SDS011;9382;53.242;10.438;2023-01-28T01:57:59;3.27;;;1.90;;
18505;SDS011;9382;53.242;10.438;2023-01-28T02:00:29;4.50;;;2.23;;
18505;SDS011;9382;53.242;10.438;2023-01-28T02:02:56;2.73;;;2.00;;
18505;SDS011;9382;53.242;10.438;2023-01-28T02:05:23;2.20;;;2.00;;
18505;SDS011;9382;53.242;10.438;2023-01-28T02:07:51;3.03;;;1.93;;
18505;SDS011;9382;53.242;10.438;2023-01-28T02:10:42;4.13;;;2.10;;
18505;SDS011;9382;53.242;10.438;2023-01-28T02:13:09;3.07;;;2.07;;
18505;SDS011;9382;53.242;10.438;2023-01-28T02:15:36;2.90;;;2.13;;
18505;SDS011;9382;53.242;10.438;2023-01-28T02:18:04;2.80;;;2.27;;
18505;SDS011;9382;53.242;10.438;2023-01-28T02:20:38;2.97;;;2.27;;
18505;SDS011;9382;53.242;10.438;2023-01-28T02:23:26;2.30;;;2.00;;
18505;SDS011;9382;53.242;10.438;2023-01-28T02:29:19;3.93;;;2.10;;
18505;SDS011;9382;53.242;10.438;2023-01-28T02:31:52;2.97;;;1.90;;
18505;SDS011;9382;53.242;10.438;2023-01-28T02:34:24;3.50;;;1.90;;
18505;SDS011;9382;53.242;10.438;2023-01-28T02:37:01;4.20;;;2.30;;
18505;SDS011;9382;53.242;10.438;2023-01-28T02:39:34;2.97;;;2.00;;
18505;SDS011;9382;53.242;10.438;2023-01-28T02:42:05;2.40;;;2.20;;
18505;SDS011;9382;53.242;10.438;2023-01-28T02:44:37;4.43;;;2.47;;
18505;SDS011;9382;53.242;10.438;2023-01-28T02:47:04;4.10;;;2.10;;
18505;SDS011;9382;53.242;10.438;2023-01-28T02:49:52;2.00;;;1.80;;
18505;SDS011;9382;53.242;10.438;2023-01-28T02:52:24;5.03;;;1.93;;
18505;SDS011;9382;53.242;10.438;2023-01-28T02:55:20;6.20;;;2.30;;
18505;SDS011;9382;53.242;10.438;2023-01-28T02:57:57;2.30;;;2.10;;
18505;SDS011;9382;53.242;10.438;2023-01-28T03:00:33;2.53;;;2.20;;
18505;SDS011;9382;53.242;10.438;2023-01-28T03:03:11;3.23;;;2.33;;
18505;SDS011;9382;53.242;10.438;2023-01-28T03:05:42;5.57;;;2.50;;
18505;SDS011;9382;53.242;10.438;2023-01-28T03:08:27;2.90;;;2.20;;
18505;SDS011;9382;53.242;10.438;2023-01-28T03:11:15;2.83;;;2.40;;
18505;SDS011;9382;53.242;10.438;2023-01-28T03:14:00;2.53;;;2.03;;
18505;SDS011;9382;53.242;10.438;2023-01-28T03:16:45;3.43;;;2.30;;
18505;SDS011;9382;53.242;10.438;2023-01-28T03:19:32;3.50;;;2.07;;
18505;SDS011;9382;53.242;10.438;2023-01-28T03:22:16;4.50;;;2.10;;
18505;SDS011;9382;53.242;10.438;2023-01-28T03:25:01;3.37;;;2.13;;
18505;SDS011;9382;53.242;10.438;2023-01-28T03:27:46;2.30;;;2.10;;
18505;SDS011;9382;53.242;10.438;2023-01-28T03:30:36;3.43;;;2.27;;
18505;SDS011;9382;53.242;10.438;2023-01-28T03:33:26;2.83;;;2.30;;
18505;SDS011;9382;53.242;10.438;2023-01-28T03:36:11;2.70;;;2.20;;
18505;SDS011;9382;53.242;10.438;2023-01-28T03:38:55;4.30;;;2.50;;
18505;SDS011;9382;53.242;10.438;2023-01-28T03:41:23;2.37;;;2.17;;
18505;SDS011;9382;53.242;10.438;2023-01-28T03:43:51;3.20;;;2.20;;
18505;SDS011;9382;53.242;10.438;2023-01-28T03:46:18;3.87;;;2.03;;
18505;SDS011;9382;53.242;10.438;2023-01-28T03:48:46;2.17;;;2.00;;
18505;SDS011;9382;53.242;10.438;2023-01-28T03:51:13;3.73;;;2.20;;
18505;SDS011;9382;53.242;10.438;2023-01-28T03:53:41;3.03;;;2.60;;
18505;SDS011;9382;53.242;10.438;2023-01-28T03:56:08;2.10;;;2.00;;
18505;SDS011;9382;53.242;10.438;2023-01-28T03:58:42;2.33;;;2.13;;
18505;SDS011;9382;53.242;10.438;2023-01-28T04:01:17;2.73;;;2.20;;
18505;SDS011;9382;53.242;10.438;2023-01-28T04:03:44;2.37;;;1.90;;
18505;SDS011;9382;53.242;10.438;2023-01-28T04:06:12;2.03;;;1.93;;
18505;SDS011;9382;53.242;10.438;2023-01-28T04:08:39;3.53;;;2.07;;
18505;SDS011;9382;53.242;10.438;2023-01-28T04:11:13;2.10;;;2.00;;
18505;SDS011;9382;53.242;10.438;2023-01-28T04:13:44;3.27;;;2.03;;
18505;SDS011;9382;53.242;10.438;2023-01-28T04:16:12;2.60;;;2.27;;
18505;SDS011;9382;53.242;10.438;2023-01-28T04:18:40;2.57;;;2.33;;
18505;SDS011;9382;53.242;10.438;2023-01-28T04:21:07;3.37;;;2.07;;
18505;SDS011;9382;53.242;10.438;2023-01-28T04:23:35;3.50;;;2.37;;
18505;SDS011;9382;53.242;10.438;2023-01-28T04:26:01;2.07;;;1.93;;
18505;SDS011;9382;53.242;10.438;2023-01-28T04:28:29;4.10;;;2.10;;
18505;SDS011;9382;53.242;10.438;2023-01-28T04:30:56;2.83;;;2.23;;
18505;SDS011;9382;53.242;10.438;2023-01-28T04:33:22;2.27;;;2.07;;
18505;SDS011;9382;53.242;10.438;2023-01-28T04:35:49;3.50;;;1.97;;
18505;SDS011;9382;53.242;10.438;2023-01-28T04:38:16;2.93;;;2.10;;
18505;SDS011;9382;53.242;10.438;2023-01-28T04:40:47;2.60;;;1.90;;
18505;SDS011;9382;53.242;10.438;2023-01-28T04:43:14;4.00;;;2.27;;
18505;SDS011;9382;53.242;10.438;2023-01-28T04:45:42;2.40;;;2.20;;
18505;SDS011;9382;53.242;10.438;2023-01-28T04:48:09;2.37;;;2.10;;
18505;SDS011;9382;53.242;10.438;2023-01-28T04:50:35;2.87;;;2.50;;
18505;SDS011;9382;53.242;10.438;2023-01-28T04:53:02;3.03;;;2.40;;
18505;SDS011;9382;53.242;10.438;2023-01-28T04:55:29;3.23;;;2.40;;
18505;SDS011;9382;53.242;10.438;2023-01-28T04:57:57;4.93;;;2.63;;
18505;SDS011;9382;53.242;10.438;2023-01-28T05:00:24;4.73;;;2.20;;
18505;SDS011;9382;53.242;10.438;2023-01-28T05:02:51;2.47;;;2.27;;
18505;SDS011;9382;53.242;10.438;2023-01-28T05:05:17;3.13;;;2.70;;
18505;SDS011;9382;53.242;10.438;2023-01-28T05:07:49;5.67;;;2.43;;
18505;SDS011;9382;53.242;10.438;2023-01-28T05:10:17;5.03;;;2.43;;
18505;SDS011;9382;53.242;10.438;2023-01-28T05:12:44;3.63;;;2.40;;
18505;SDS011;9382;53.242;10.438;2023-01-28T05:15:13;4.53;;;2.43;;
18505;SDS011;9382;53.242;10.438;2023-01-28T05:17:40;3.87;;;2.40;;
18505;SDS011;9382;53.242;10.438;2023-01-28T05:20:08;2.53;;;2.27;;
18505;SDS011;9382;53.242;10.438;2023-01-28T05:22:36;5.20;;;2.27;;
18505;SDS011;9382;53.242;10.438;2023-01-28T05:25:04;3.20;;;2.40;;
18505;SDS011;9382;53.242;10.438;2023-01-28T05:27:31;3.03;;;2.30;;
18505;SDS011;9382;53.242;10.438;2023-01-28T05:29:59;5.67;;;2.50;;
18505;SDS011;9382;53.242;10.438;2023-01-28T05:32:27;2.97;;;2.20;;
18505;SDS011;9382;53.242;10.438;2023-01-28T05:34:53;3.07;;;2.77;;
18505;SDS011;9382;53.242;10.438;2023-01-28T05:37:20;2.53;;;2.33;;
18505;SDS011;9382;53.242;10.438;2023-01-28T05:39:47;3.13;;;2.20;;
18505;SDS011;9382;53.242;10.438;2023-01-28T05:42:14;2.80;;;2.50;;
18505;SDS011;9382;53.242;10.438;2023-01-28T05:44:42;2.60;;;2.40;;
18505;SDS011;9382;53.242;10.438;2023-01-28T05:47:09;2.70;;;2.50;;
18505;SDS011;9382;53.242;10.438;2023-01-28T05:49:37;5.57;;;2.60;;
18505;SDS011;9382;53.242;10.438;2023-01-28T05:52:04;2.50;;;2.30;;
18505;SDS011;9382;53.242;10.438;2023-01-28T05:54:30;4.10;;;2.23;;
18505;SDS011;9382;53.242;10.438;2023-01-28T05:56:57;2.90;;;2.00;;
18505;SDS011;9382;53.242;10.438;2023-01-28T05:59:24;2.53;;;2.20;;
18505;SDS011;9382;53.242;10.438;2023-01-28T06:01:50;2.47;;;2.27;;
18505;SDS011;9382;53.242;10.438;2023-01-28T06:04:17;4.63;;;2.20;;
18505;SDS011;9382;53.242;10.438;2023-01-28T06:06:46;2.13;;;2.00;;
18505;SDS011;9382;53.242;10.438;2023-01-28T06:09:12;2.97;;;2.30;;
18505;SDS011;9382;53.242;10.438;2023-01-28T06:11:39;3.87;;;2.47;;
18505;SDS011;9382;53.242;10.438;2023-01-28T06:14:06;2.60;;;2.40;;
18505;SDS011;9382;53.242;10.438;2023-01-28T06:16:33;4.40;;;2.40;;
18505;SDS011;9382;53.242;10.438;2023-01-28T06:19:00;2.27;;;2.17;;
18505;SDS011;9382;53.242;10.438;2023-01-28T06:21:26;4.50;;;2.37;;
18505;SDS011;9382;53.242;10.438;2023-01-28T06:23:55;2.80;;;2.40;;
18505;SDS011;9382;53.242;10.438;2023-01-28T06:26:21;5.67;;;2.60;;
18505;SDS011;9382;53.242;10.438;2023-01-28T06:28:48;2.90;;;2.33;;
18505;SDS011;9382;53.242;10.438;2023-01-28T06:31:15;3.33;;;2.23;;
18505;SDS011;9382;53.242;10.438;2023-01-28T06:33:42;3.90;;;2.30;;
18505;SDS011;9382;53.242;10.438;2023-01-28T06:36:09;3.27;;;2.27;;
18505;SDS011;9382;53.242;10.438;2023-01-28T06:38:35;4.43;;;2.43;;
18505;SDS011;9382;53.242;10.438;2023-01-28T06:41:04;2.40;;;2.20;;
18505;SDS011;9382;53.242;10.438;2023-01-28T06:43:30;3.63;;;2.30;;
18505;SDS011;9382;53.242;10.438;2023-01-28T06:45:57;2.50;;;2.30;;
18505;SDS011;9382;53.242;10.438;2023-01-28T06:48:24;2.47;;;2.27;;
18505;SDS011;9382;53.242;10.438;2023-01-28T06:50:52;3.17;;;2.23;;
18505;SDS011;9382;53.242;10.438;2023-01-28T06:53:19;3.03;;;2.30;;
18505;SDS011;9382;53.242;10.438;2023-01-28T06:55:46;3.37;;;2.20;;
18505;SDS011;9382;53.242;10.438;2023-01-28T06:58:14;3.50;;;2.20;;
18505;SDS011;9382;53.242;10.438;2023-01-28T07:00:41;2.70;;;2.50;;
18505;SDS011;9382;53.242;10.438;2023-01-28T07:03:07;2.40;;;2.20;;
18505;SDS011;9382;53.242;10.438;2023-01-28T07:05:34;4.47;;;2.30;;
18505;SDS011;9382;53.242;10.438;2023-01-28T07:08:01;6.20;;;2.47;;
18505;SDS011;9382;53.242;10.438;2023-01-28T07:10:28;2.90;;;2.60;;
18505;SDS011;9382;53.242;10.438;2023-01-28T07:12:55;3.53;;;2.40;;
18505;SDS011;9382;53.242;10.438;2023-01-28T07:15:23;5.00;;;2.50;;
18505;SDS011;9382;53.242;10.438;2023-01-28T07:17:50;3.60;;;2.40;;
18505;SDS011;9382;53.242;10.438;2023-01-28T07:20:16;2.60;;;2.40;;
18505;SDS011;9382;53.242;10.438;2023-01-28T07:22:43;2.70;;;2.50;;
18505;SDS011;9382;53.242;10.438;2023-01-28T07:25:11;3.00;;;2.33;;
18505;SDS011;9382;53.242;10.438;2023-01-28T07:27:44;3.57;;;2.50;;
18505;SDS011;9382;53.242;10.438;2023-01-28T07:30:15;4.23;;;2.60;;
18505;SDS011;9382;53.242;10.438;2023-01-28T07:32:44;3.10;;;2.47;;
18505;SDS011;9382;53.242;10.438;2023-01-28T07:35:12;5.87;;;2.77;;
18505;SDS011;9382;53.242;10.438;2023-01-28T07:37:40;4.13;;;2.80;;
18505;SDS011;9382;53.242;10.438;2023-01-28T07:40:07;3.37;;;3.00;;
18505;SDS011;9382;53.242;10.438;2023-01-28T07:42:35;5.77;;;2.93;;
18505;SDS011;9382;53.242;10.438;2023-01-28T07:45:02;4.63;;;2.97;;
18505;SDS011;9382;53.242;10.438;2023-01-28T07:47:30;3.63;;;2.90;;
18505;SDS011;9382;53.242;10.438;2023-01-28T07:49:58;3.07;;;2.87;;
18505;SDS011;9382;53.242;10.438;2023-01-28T07:52:25;4.13;;;3.00;;
18505;SDS011;9382;53.242;10.438;2023-01-28T07:54:52;4.03;;;2.97;;
18505;SDS011;9382;53.242;10.438;2023-01-28T07:57:19;3.83;;;3.20;;
18505;SDS011;9382;53.242;10.438;2023-01-28T07:59:48;4.23;;;3.10;;
18505;SDS011;9382;53.242;10.438;2023-01-28T08:02:15;5.17;;;3.13;;
18505;SDS011;9382;53.242;10.438;2023-01-28T08:04:42;5.03;;;3.60;;
18505;SDS011;9382;53.242;10.438;2023-01-28T08:07:10;6.90;;;3.60;;
18505;SDS011;9382;53.242;10.438;2023-01-28T08:09:37;7.63;;;3.43;;
18505;SDS011;9382;53.242;10.438;2023-01-28T08:12:04;4.17;;;3.57;;
18505;SDS011;9382;53.242;10.438;2023-01-28T08:14:31;4.33;;;3.00;;
18505;SDS011;9382;53.242;10.438;2023-01-28T08:16:57;3.57;;;3.27;;
18505;SDS011;9382;53.242;10.438;2023-01-28T08:19:24;5.63;;;3.67;;
18505;SDS011;9382;53.242;10.438;2023-01-28T08:21:51;4.30;;;3.90;;
18505;SDS011;9382;53.242;10.438;2023-01-28T08:24:19;6.43;;;3.13;;
18505;SDS011;9382;53.242;10.438;2023-01-28T08:26:46;3.80;;;3.13;;
18505;SDS011;9382;53.242;10.438;2023-01-28T08:29:13;3.83;;;3.43;;
18505;SDS011;9382;53.242;10.438;2023-01-28T08:31:40;7.17;;;3.83;;
18505;SDS011;9382;53.242;10.438;2023-01-28T08:34:07;5.70;;;3.47;;
18505;SDS011;9382;53.242;10.438;2023-01-28T08:36:34;7.53;;;4.00;;
18505;SDS011;9382;53.242;10.438;2023-01-28T08:39:01;6.30;;;4.00;;
18505;SDS011;9382;53.242;10.438;2023-01-28T08:41:29;5.27;;;3.50;;
18505;SDS011;9382;53.242;10.438;2023-01-28T08:43:56;4.70;;;3.83;;
18505;SDS011;9382;53.242;10.438;2023-01-28T08:46:24;4.63;;;3.00;;
18505;SDS011;9382;53.242;10.438;2023-01-28T08:48:51;7.50;;;3.30;;
18505;SDS011;9382;53.242;10.438;2023-01-28T08:51:17;3.50;;;3.20;;
18505;SDS011;9382;53.242;10.438;2023-01-28T08:53:44;5.57;;;3.10;;
18505;SDS011;9382;53.242;10.438;2023-01-28T08:56:11;5.20;;;3.80;;
18505;SDS011;9382;53.242;10.438;2023-01-28T08:58:39;5.67;;;3.60;;
18505;SDS011;9382;53.242;10.438;2023-01-28T09:01:06;6.37;;;3.50;;
18505;SDS011;9382;53.242;10.438;2023-01-28T09:03:33;5.37;;;3.47;;
18505;SDS011;9382;53.242;10.438;2023-01-28T09:06:00;5.20;;;3.73;;
18505;SDS011;9382;53.242;10.438;2023-01-28T09:08:27;5.37;;;3.30;;
18505;SDS011;9382;53.242;10.438;2023-01-28T09:10:54;4.63;;;3.00;;
18505;SDS011;9382;53.242;10.438;2023-01-28T09:13:21;3.63;;;2.90;;
18505;SDS011;9382;53.242;10.438;2023-01-28T09:15:50;5.97;;;3.50;;
18505;SDS011;9382;53.242;10.438;2023-01-28T09:18:17;3.13;;;2.80;;
18505;SDS011;9382;53.242;10.438;2023-01-28T09:20:44;5.73;;;3.13;;
18505;SDS011;9382;53.242;10.438;2023-01-28T09:23:11;3.80;;;3.10;;
18505;SDS011;9382;53.242;10.438;2023-01-28T09:25:38;5.03;;;3.00;;
18505;SDS011;9382;53.242;10.438;2023-01-28T09:28:05;2.93;;;2.63;;
18505;SDS011;9382;53.242;10.438;2023-01-28T09:30:32;5.77;;;2.97;;
18505;SDS011;9382;53.242;10.438;2023-01-28T09:33:00;5.00;;;3.20;;
18505;SDS011;9382;53.242;10.438;2023-01-28T09:35:27;4.13;;;3.03;;
18505;SDS011;9382;53.242;10.438;2023-01-28T09:37:55;5.43;;;2.97;;
18505;SDS011;9382;53.242;10.438;2023-01-28T09:40:26;2.90;;;2.57;;
18505;SDS011;9382;53.242;10.438;2023-01-28T09:43:02;4.23;;;3.20;;
18505;SDS011;9382;53.242;10.438;2023-01-28T09:45:39;5.27;;;3.07;;
18505;SDS011;9382;53.242;10.438;2023-01-28T09:48:11;3.57;;;2.87;;
18505;SDS011;9382;53.242;10.438;2023-01-28T09:50:41;3.63;;;2.80;;
18505;SDS011;9382;53.242;10.438;2023-01-28T09:53:11;3.67;;;2.87;;
18505;SDS011;9382;53.242;10.438;2023-01-28T09:55:42;6.07;;;3.10;;
18505;SDS011;9382;53.242;10.438;2023-01-28T09:58:12;6.30;;;2.63;;
18505;SDS011;9382;53.242;10.438;2023-01-28T10:00:44;3.23;;;2.67;;
18505;SDS011;9382;53.242;10.438;2023-01-28T10:03:24;7.10;;;3.00;;
18505;SDS011;9382;53.242;10.438;2023-01-28T10:06:03;3.83;;;3.10;;
18505;SDS011;9382;53.242;10.438;2023-01-28T10:08:55;5.37;;;2.40;;
18505;SDS011;9382;53.242;10.438;2023-01-28T10:11:48;2.50;;;2.30;;
18505;SDS011;9382;53.242;10.438;2023-01-28T10:14:42;3.97;;;2.77;;
18505;SDS011;9382;53.242;10.438;2023-01-28T10:17:16;2.80;;;2.60;;
18505;SDS011;9382;53.242;10.438;2023-01-28T10:19:50;4.03;;;2.90;;
18505;SDS011;9382;53.242;10.438;2023-01-28T10:22:22;3.80;;;2.70;;
18505;SDS011;9382;53.242;10.438;2023-01-28T10:24:53;3.97;;;2.70;;
18505;SDS011;9382;53.242;10.438;2023-01-28T10:27:27;5.20;;;4.07;;
18505;SDS011;9382;53.242;10.438;2023-01-28T10:29:55;6.97;;;5.10;;
18505;SDS011;9382;53.242;10.438;2023-01-28T10:32:27;7.23;;;5.50;;
18505;SDS011;9382;53.242;10.438;2023-01-28T10:34:57;7.93;;;5.30;;
18505;SDS011;9382;53.242;10.438;2023-01-28T10:37:25;6.20;;;5.40;;
18505;SDS011;9382;53.242;10.438;2023-01-28T10:39:53;8.70;;;5.90;;
18505;SDS011;9382;53.242;10.438;2023-01-28T10:42:25;10.40;;;5.80;;
18505;SDS011;9382;53.242;10.438;2023-01-28T10:44:55;7.13;;;5.70;;
18505;SDS011;9382;53.242;10.438;2023-01-28T10:47:26;7.00;;;6.07;;
18505;SDS011;9382;53.242;10.438;2023-01-28T10:49:58;8.47;;;5.90;;
18505;SDS011;9382;53.242;10.438;2023-01-28T10:52:26;6.27;;;5.63;;
18505;SDS011;9382;53.242;10.438;2023-01-28T10:54:59;6.67;;;5.37;;
18505;SDS011;9382;53.242;10.438;2023-01-28T10:57:26;8.80;;;5.77;;
18505;SDS011;9382;53.242;10.438;2023-01-28T10:59:53;5.90;;;5.30;;
18505;SDS011;9382;53.242;10.438;2023-01-28T11:02:28;6.00;;;5.40;;
18505;SDS011;9382;53.242;10.438;2023-01-28T11:05:02;6.50;;;5.70;;
18505;SDS011;9382;53.242;10.438;2023-01-28T11:07:30;7.47;;;5.47;;
18505;SDS011;9382;53.242;10.438;2023-01-28T11:09:58;7.33;;;4.87;;
18505;SDS011;9382;53.242;10.438;2023-01-28T11:12:25;5.27;;;4.77;;
18505;SDS011;9382;53.242;10.438;2023-01-28T11:14:53;4.57;;;4.20;;
18505;SDS011;9382;53.242;10.438;2023-01-28T11:17:22;5.33;;;4.07;;
18505;SDS011;9382;53.242;10.438;2023-01-28T11:19:50;4.10;;;3.77;;
18505;SDS011;9382;53.242;10.438;2023-01-28T11:22:22;4.77;;;4.37;;
18505;SDS011;9382;53.242;10.438;2023-01-28T11:24:55;4.70;;;4.27;;
18505;SDS011;9382;53.242;10.438;2023-01-28T11:27:24;5.57;;;4.40;;
18505;SDS011;9382;53.242;10.438;2023-01-28T11:29:55;5.80;;;4.60;;
18505;SDS011;9382;53.242;10.438;2023-01-28T11:32:26;6.20;;;4.40;;
18505;SDS011;9382;53.242;10.438;2023-01-28T11:34:54;6.73;;;4.90;;
18505;SDS011;9382;53.242;10.438;2023-01-28T11:37:24;5.97;;;4.47;;
18505;SDS011;9382;53.242;10.438;2023-01-28T11:42:45;4.53;;;4.13;;
18505;SDS011;9382;53.242;10.438;2023-01-28T11:45:14;7.57;;;4.20;;
18505;SDS011;9382;53.242;10.438;2023-01-28T11:47:48;5.30;;;4.20;;
18505;SDS011;9382;53.242;10.438;2023-01-28T11:50:32;4.87;;;4.37;;
18505;SDS011;9382;53.242;10.438;2023-01-28T11:56:26;7.70;;;4.00;;
18505;SDS011;9382;53.242;10.438;2023-01-28T11:59:20;3.90;;;3.60;;
18505;SDS011;9382;53.242;10.438;2023-01-28T12:01:58;5.10;;;3.50;;
18505;SDS011;9382;53.242;10.438;2023-01-28T12:04:40;3.97;;;3.67;;
18505;SDS011;9382;53.242;10.438;2023-01-28T12:07:21;3.70;;;3.40;;
18505;SDS011;9382;53.242;10.438;2023-01-28T12:09:59;3.60;;;3.30;;
18505;SDS011;9382;53.242;10.438;2023-01-28T12:12:39;4.37;;;3.20;;
18505;SDS011;9382;53.242;10.438;2023-01-28T12:15:25;4.63;;;3.20;;
18505;SDS011;9382;53.242;10.438;2023-01-28T12:18:18;3.63;;;3.27;;
18505;SDS011;9382;53.242;10.438;2023-01-28T12:20:55;4.10;;;3.70;;
18505;SDS011;9382;53.242;10.438;2023-01-28T12:23:42;4.23;;;3.50;;
18505;SDS011;9382;53.242;10.438;2023-01-28T12:26:21;3.50;;;3.20;;
18505;SDS011;9382;53.242;10.438;2023-01-28T12:29:00;4.10;;;3.30;;
18505;SDS011;9382;53.242;10.438;2023-01-28T12:31:45;4.87;;;3.33;;
18505;SDS011;9382;53.242;10.438;2023-01-28T12:34:42;3.70;;;3.40;;
18505;SDS011;9382;53.242;10.438;2023-01-28T12:37:29;4.60;;;3.30;;
18505;SDS011;9382;53.242;10.438;2023-01-28T12:40:07;3.60;;;3.30;;
18505;SDS011;9382;53.242;10.438;2023-01-28T12:42:46;5.57;;;3.40;;
18505;SDS011;9382;53.242;10.438;2023-01-28T12:45:17;4.37;;;3.37;;
18505;SDS011;9382;53.242;10.438;2023-01-28T12:47:50;6.60;;;3.80;;
18505;SDS011;9382;53.242;10.438;2023-01-28T12:50:21;7.77;;;3.47;;
18505;SDS011;9382;53.242;10.438;2023-01-28T12:52:53;4.90;;;3.57;;
18505;SDS011;9382;53.242;10.438;2023-01-28T12:55:27;3.73;;;3.30;;
18505;SDS011;9382;53.242;10.438;2023-01-28T12:58:05;3.50;;;3.20;;
18505;SDS011;9382;53.242;10.438;2023-01-28T13:00:38;3.80;;;3.43;;
18505;SDS011;9382;53.242;10.438;2023-01-28T13:03:10;4.57;;;3.60;;
18505;SDS011;9382;53.242;10.438;2023-01-28T13:05:43;5.90;;;3.90;;
18505;SDS011;9382;53.242;10.438;2023-01-28T13:08:15;5.30;;;3.70;;
18505;SDS011;9382;53.242;10.438;2023-01-28T13:10:46;3.97;;;3.67;;
18505;SDS011;9382;53.242;10.438;2023-01-28T13:13:18;5.50;;;3.80;;
18505;SDS011;9382;53.242;10.438;2023-01-28T13:15:47;3.70;;;3.40;;
18505;SDS011;9382;53.242;10.438;2023-01-28T13:18:31;5.27;;;3.70;;
18505;SDS011;9382;53.242;10.438;2023-01-28T13:21:00;3.73;;;3.50;;
18505;SDS011;9382;53.242;10.438;2023-01-28T13:23:35;6.07;;;3.50;;
18505;SDS011;9382;53.242;10.438;2023-01-28T13:26:08;3.93;;;3.63;;
18505;SDS011;9382;53.242;10.438;2023-01-28T13:28:52;4.90;;;3.87;;
18505;SDS011;9382;53.242;10.438;2023-01-28T13:31:35;6.27;;;3.57;;
18505;SDS011;9382;53.242;10.438;2023-01-28T13:34:03;5.13;;;3.70;;
18505;SDS011;9382;53.242;10.438;2023-01-28T13:36:32;4.00;;;3.67;;
18505;SDS011;9382;53.242;10.438;2023-01-28T13:39:04;5.60;;;3.50;;
18505;SDS011;9382;53.242;10.438;2023-01-28T13:41:39;5.10;;;3.53;;
18505;SDS011;9382;53.242;10.438;2023-01-28T13:44:19;5.70;;;3.70;;
18505;SDS011;9382;53.242;10.438;2023-01-28T13:46:52;4.60;;;3.50;;
18505;SDS011;9382;53.242;10.438;2023-01-28T13:49:20;6.40;;;4.40;;
18505;SDS011;9382;53.242;10.438;2023-01-28T13:51:55;4.47;;;3.63;;
18505;SDS011;9382;53.242;10.438;2023-01-28T13:54:26;6.53;;;4.20;;
18505;SDS011;9382;53.242;10.438;2023-01-28T13:57:01;4.53;;;3.50;;
18505;SDS011;9382;53.242;10.438;2023-01-28T13:59:53;9.10;;;4.00;;
18505;SDS011;9382;53.242;10.438;2023-01-28T14:02:39;6.70;;;3.63;;
18505;SDS011;9382;53.242;10.438;2023-01-28T14:05:45;4.20;;;3.70;;
18505;SDS011;9382;53.242;10.438;2023-01-28T14:11:32;4.90;;;3.70;;
18505;SDS011;9382;53.242;10.438;2023-01-28T14:17:28;5.63;;;3.90;;
18505;SDS011;9382;53.242;10.438;2023-01-28T14:20:00;5.03;;;3.67;;
18505;SDS011;9382;53.242;10.438;2023-01-28T14:22:29;4.03;;;3.53;;
18505;SDS011;9382;53.242;10.438;2023-01-28T14:24:56;6.67;;;3.70;;
18505;SDS011;9382;53.242;10.438;2023-01-28T14:27:26;4.00;;;3.47;;
18505;SDS011;9382;53.242;10.438;2023-01-28T14:30:02;5.60;;;3.97;;
18505;SDS011;9382;53.242;10.438;2023-01-28T14:32:34;8.00;;;4.07;;
18505;SDS011;9382;53.242;10.438;2023-01-28T14:35:04;5.80;;;3.93;;
18505;SDS011;9382;53.242;10.438;2023-01-28T14:37:33;4.83;;;4.00;;
18505;SDS011;9382;53.242;10.438;2023-01-28T14:40:01;4.90;;;4.23;;
18505;SDS011;9382;53.242;10.438;2023-01-28T14:42:31;5.43;;;4.03;;
18505;SDS011;9382;53.242;10.438;2023-01-28T14:45:06;6.03;;;4.13;;
18505;SDS011;9382;53.242;10.438;2023-01-28T14:47:58;4.43;;;4.03;;
18505;SDS011;9382;53.242;10.438;2023-01-28T14:50:44;5.13;;;4.00;;
18505;SDS011;9382;53.242;10.438;2023-01-28T14:53:25;4.53;;;4.13;;
18505;SDS011;9382;53.242;10.438;2023-01-28T14:56:07;8.57;;;4.20;;
18505;SDS011;9382;53.242;10.438;2023-01-28T14:58:42;4.97;;;4.00;;
18505;SDS011;9382;53.242;10.438;2023-01-28T15:01:18;6.10;;;4.40;;
18505;SDS011;9382;53.242;10.438;2023-01-28T15:03:48;4.50;;;4.10;;
18505;SDS011;9382;53.242;10.438;2023-01-28T15:06:16;7.40;;;4.80;;
18505;SDS011;9382;53.242;10.438;2023-01-28T15:08:45;6.40;;;4.87;;
18505;SDS011;9382;53.242;10.438;2023-01-28T15:11:13;5.57;;;4.43;;
18505;SDS011;9382;53.242;10.438;2023-01-28T15:13:42;6.63;;;5.07;;
18505;SDS011;9382;53.242;10.438;2023-01-28T15:16:14;5.53;;;4.90;;
18505;SDS011;9382;53.242;10.438;2023-01-28T15:18:44;6.40;;;4.67;;
18505;SDS011;9382;53.242;10.438;2023-01-28T15:21:12;5.23;;;4.80;;
18505;SDS011;9382;53.242;10.438;2023-01-28T15:23:46;9.97;;;5.80;;
18505;SDS011;9382;53.242;10.438;2023-01-28T15:26:16;8.87;;;6.03;;
18505;SDS011;9382;53.242;10.438;2023-01-28T15:28:45;8.90;;;6.00;;